createdAt,value
2019-03-03T00:01:55.407Z,3.93
2019-03-03T00:04:45.670Z,4.63
2019-03-03T00:07:30.127Z,4.50
2019-03-03T00:10:40.414Z,4.57
2019-03-03T00:13:22.965Z,5.40
2019-03-03T00:19:17.709Z,5.43
2019-03-03T00:22:07.569Z,4.63
2019-03-03T00:24:49.882Z,4.07
2019-03-03T00:27:39.671Z,4.73
2019-03-03T00:30:10.966Z,3.63
2019-03-03T00:33:00.740Z,5.63
2019-03-03T00:35:43.435Z,5.20
2019-03-03T00:38:52.047Z,4.10
2019-03-03T00:41:56.422Z,3.80
2019-03-03T00:45:04.957Z,3.97
2019-03-03T00:51:31.327Z,5.13
2019-03-03T00:54:23.313Z,3.80
2019-03-03T00:57:26.291Z,6.77
2019-03-03T01:00:59.517Z,5.43
2019-03-03T01:04:10.580Z,6.50
2019-03-03T01:07:17.771Z,5.53
2019-03-03T01:10:12.737Z,4.70
2019-03-03T01:13:14.646Z,8.67
2019-03-03T01:16:23.528Z,6.47
2019-03-03T01:19:17.172Z,4.57
2019-03-03T01:21:56.126Z,5.97
2019-03-03T01:25:04.700Z,5.03
2019-03-03T01:27:47.881Z,4.93
2019-03-03T01:30:37.619Z,5.57
2019-03-03T01:33:20.114Z,6.63
2019-03-03T01:36:09.962Z,5.47
2019-03-03T01:38:59.730Z,5.37
2019-03-03T01:41:49.605Z,5.63
2019-03-03T01:44:39.387Z,7.10
2019-03-03T01:47:29.303Z,4.37
2019-03-03T01:50:19.083Z,6.37
2019-03-03T01:56:12.037Z,5.23
2019-03-03T01:58:54.234Z,4.70
2019-03-03T02:01:43.987Z,4.73
2019-03-03T02:04:33.779Z,6.30
2019-03-03T02:07:16.361Z,5.13
2019-03-03T02:10:06.282Z,5.27
2019-03-03T02:13:15.402Z,7.97
2019-03-03T02:16:23.926Z,4.50
2019-03-03T02:19:06.532Z,4.63
2019-03-03T02:21:56.363Z,5.87
2019-03-03T02:24:46.133Z,4.77
2019-03-03T02:27:35.998Z,5.37
2019-03-03T02:30:25.780Z,4.63
2019-03-03T02:33:15.594Z,4.37
2019-03-03T02:36:05.387Z,3.50
2019-03-03T02:38:48.275Z,4.50
2019-03-03T02:41:37.999Z,6.60
2019-03-03T02:44:27.739Z,5.60
2019-03-03T02:47:17.492Z,4.10
2019-03-03T02:50:08.355Z,4.10
2019-03-03T02:53:10.379Z,6.63
2019-03-03T02:55:54.869Z,5.47
2019-03-03T02:58:37.735Z,4.17
2019-03-03T03:04:32.175Z,4.03
2019-03-03T03:07:33.789Z,4.80
2019-03-03T03:10:42.298Z,5.17
2019-03-03T03:13:34.740Z,3.87
2019-03-03T03:16:29.731Z,4.90
2019-03-03T03:19:38.349Z,6.03
2019-03-03T03:22:45.472Z,4.03
2019-03-03T03:25:54.065Z,4.77
2019-03-03T03:29:03.063Z,5.27
2019-03-03T03:32:11.793Z,9.37
2019-03-03T03:35:20.353Z,5.80
2019-03-03T03:38:19.297Z,6.00
2019-03-03T03:41:27.833Z,5.87
2019-03-03T03:44:36.427Z,6.33
2019-03-03T03:50:46.582Z,6.33
2019-03-03T03:53:53.828Z,6.37
2019-03-03T03:57:02.373Z,5.10
2019-03-03T03:59:50.477Z,4.33
2019-03-03T04:02:59.048Z,5.30
2019-03-03T04:06:00.549Z,4.60
2019-03-03T04:09:09.113Z,3.63
2019-03-03T04:12:17.683Z,3.23
2019-03-03T04:15:11.497Z,4.10
2019-03-03T04:18:20.090Z,2.70
2019-03-03T04:21:21.678Z,4.90
2019-03-03T04:24:13.190Z,2.37
2019-03-03T04:27:21.750Z,2.53
2019-03-03T04:30:30.316Z,3.57
2019-03-03T04:33:39.022Z,3.23
2019-03-03T04:36:47.650Z,3.77
2019-03-03T04:39:35.775Z,4.13
2019-03-03T04:42:32.038Z,3.70
2019-03-03T04:45:40.544Z,4.03
2019-03-03T04:48:30.584Z,4.50
2019-03-03T04:51:20.071Z,2.43
2019-03-03T04:54:14.842Z,3.87
2019-03-03T04:57:12.078Z,2.60
2019-03-03T05:00:13.545Z,3.83
2019-03-03T05:03:22.060Z,3.63
2019-03-03T05:06:22.923Z,2.40
2019-03-03T05:09:31.420Z,2.60
2019-03-03T05:12:31.379Z,2.97
2019-03-03T05:15:40.112Z,3.37
2019-03-03T05:18:43.184Z,3.63
2019-03-03T05:21:25.541Z,5.23
2019-03-03T05:24:15.270Z,3.90
2019-03-03T05:26:59.163Z,4.17
2019-03-03T05:29:48.851Z,4.50
2019-03-03T05:32:31.432Z,2.33
2019-03-03T05:35:21.162Z,4.87
2019-03-03T05:38:03.883Z,3.03
2019-03-03T05:40:53.612Z,5.87
2019-03-03T05:43:35.732Z,3.53
2019-03-03T05:46:25.489Z,4.23
2019-03-03T05:49:08.068Z,4.63
2019-03-03T05:51:57.764Z,4.40
2019-03-03T05:54:47.563Z,3.80
2019-03-03T06:00:31.811Z,4.43
2019-03-03T06:03:21.568Z,5.10
2019-03-03T06:06:11.291Z,3.80
2019-03-03T06:09:01.023Z,3.87
2019-03-03T06:11:43.762Z,3.27
2019-03-03T06:14:33.514Z,2.77
2019-03-03T06:17:23.295Z,2.80
2019-03-03T06:20:13.454Z,3.60
2019-03-03T06:23:03.444Z,3.23
2019-03-03T06:25:53.198Z,3.40
2019-03-03T06:29:02.143Z,2.50
2019-03-03T06:31:52.071Z,5.00
2019-03-03T06:35:01.012Z,4.47
2019-03-03T06:37:43.173Z,5.50
2019-03-03T06:40:32.974Z,4.97
2019-03-03T06:43:22.750Z,4.07
2019-03-03T06:46:12.522Z,5.73
2019-03-03T06:49:02.275Z,3.67
2019-03-03T06:51:52.091Z,5.00
2019-03-03T06:54:41.854Z,4.67
2019-03-03T06:57:24.507Z,6.00
2019-03-03T07:00:47.935Z,4.47
2019-03-03T07:03:32.704Z,4.47
2019-03-03T07:06:16.403Z,4.70
2019-03-03T07:12:20.647Z,5.60
2019-03-03T07:15:12.590Z,4.53
2019-03-03T07:18:02.386Z,4.23
2019-03-03T07:20:52.123Z,7.70
2019-03-03T07:23:42.067Z,3.93
2019-03-03T07:26:32.046Z,6.17
2019-03-03T07:29:21.841Z,6.57
2019-03-03T07:32:11.577Z,5.73
2019-03-03T07:35:20.585Z,4.23
2019-03-03T07:38:10.327Z,6.33
2019-03-03T07:40:53.385Z,4.63
2019-03-03T07:49:43.596Z,5.03
2019-03-03T07:52:34.396Z,6.13
2019-03-03T07:55:16.409Z,5.47
2019-03-03T07:58:06.231Z,6.30
2019-03-03T08:00:49.007Z,6.07
2019-03-03T08:03:50.626Z,5.10
2019-03-03T08:06:33.408Z,5.10
2019-03-03T08:09:23.127Z,5.87
2019-03-03T08:12:05.511Z,4.63
2019-03-03T08:14:55.617Z,6.07
2019-03-03T08:17:37.880Z,4.17
2019-03-03T08:20:27.640Z,4.73
2019-03-03T08:23:10.071Z,5.17
2019-03-03T08:25:59.776Z,4.97
2019-03-03T08:28:43.276Z,5.70
2019-03-03T08:31:33.212Z,3.53
2019-03-03T08:34:15.674Z,4.93
2019-03-03T08:37:05.573Z,5.73
2019-03-03T08:39:55.474Z,3.97
2019-03-03T08:45:58.464Z,4.73
2019-03-03T08:49:07.059Z,5.00
2019-03-03T08:52:08.094Z,3.77
2019-03-03T08:55:16.640Z,4.17
2019-03-03T08:58:06.064Z,2.80
2019-03-03T09:01:14.606Z,4.43
2019-03-03T09:04:17.076Z,5.10
2019-03-03T09:07:25.629Z,3.97
2019-03-03T09:10:33.320Z,6.10
2019-03-03T09:13:41.948Z,5.33
2019-03-03T09:16:31.682Z,4.00
2019-03-03T09:19:40.446Z,3.13
2019-03-03T09:22:36.828Z,6.23
2019-03-03T09:25:45.648Z,3.60
2019-03-03T09:28:54.394Z,4.97
2019-03-03T09:32:03.075Z,4.60
2019-03-03T09:35:11.950Z,5.43
2019-03-03T09:38:13.230Z,4.40
2019-03-03T09:41:21.810Z,4.03
2019-03-03T09:44:23.836Z,5.93
2019-03-03T09:47:28.160Z,4.70
2019-03-03T09:50:30.535Z,4.00
2019-03-03T09:53:39.507Z,3.83
2019-03-03T09:56:44.259Z,6.67
2019-03-03T09:59:41.557Z,4.90
2019-03-03T10:02:42.482Z,5.13
2019-03-03T10:05:51.282Z,6.10
2019-03-03T10:08:58.089Z,2.30
2019-03-03T10:11:59.393Z,6.40
2019-03-03T10:15:00.915Z,4.40
2019-03-03T10:17:55.618Z,4.63
2019-03-03T10:21:04.163Z,4.33
2019-03-03T10:24:08.225Z,4.53
2019-03-03T10:27:16.788Z,4.97
2019-03-03T10:30:18.508Z,2.97
2019-03-03T10:33:27.318Z,7.40
2019-03-03T10:36:30.161Z,5.50
2019-03-03T10:39:25.005Z,3.87
2019-03-03T10:42:16.685Z,5.33
2019-03-03T10:45:26.581Z,3.40
2019-03-03T10:48:30.171Z,4.03
2019-03-03T10:51:32.648Z,4.23
2019-03-03T10:54:33.721Z,5.57
2019-03-03T10:57:42.449Z,5.07
2019-03-03T11:00:41.769Z,2.60
2019-03-03T11:03:50.420Z,3.43
2019-03-03T11:06:59.026Z,4.70
2019-03-03T11:09:58.541Z,4.20
2019-03-03T11:12:56.025Z,4.90
2019-03-03T11:16:04.639Z,5.27
2019-03-03T11:19:13.277Z,5.10
2019-03-03T11:22:21.973Z,4.63
2019-03-03T11:25:30.775Z,4.60
2019-03-03T11:28:39.479Z,3.90
2019-03-03T11:31:41.726Z,4.70
2019-03-03T11:34:50.339Z,4.00
2019-03-03T11:37:41.454Z,2.87
2019-03-03T11:40:50.371Z,4.90
2019-03-03T11:43:59.084Z,2.93
2019-03-03T11:47:07.897Z,4.57
2019-03-03T11:50:16.653Z,7.47
2019-03-03T11:53:25.418Z,5.20
2019-03-03T11:56:34.046Z,4.00
2019-03-03T11:59:42.707Z,4.23
2019-03-03T12:02:53.605Z,5.57
2019-03-03T12:05:54.492Z,5.37
2019-03-03T12:08:55.951Z,5.10
2019-03-03T12:11:57.366Z,4.10
2019-03-03T12:15:25.044Z,5.17
2019-03-03T12:18:21.365Z,4.50
2019-03-03T12:21:22.577Z,3.07
2019-03-03T12:24:27.070Z,3.70
2019-03-03T12:27:36.000Z,4.70
2019-03-03T12:30:44.576Z,2.90
2019-03-03T12:33:45.638Z,5.50
2019-03-03T12:36:54.287Z,3.77
2019-03-03T12:39:43.010Z,2.23
2019-03-03T12:42:51.704Z,5.23
2019-03-03T12:45:53.162Z,2.77
2019-03-03T12:49:01.816Z,3.47
2019-03-03T12:52:10.598Z,3.47
2019-03-03T12:55:19.270Z,3.80
2019-03-03T12:58:27.994Z,4.30
2019-03-03T13:01:36.836Z,3.93
2019-03-03T13:04:37.465Z,2.87
2019-03-03T13:07:46.069Z,2.80
2019-03-03T13:10:54.649Z,6.60
2019-03-03T13:13:53.946Z,6.23
2019-03-03T13:17:02.638Z,4.70
2019-03-03T13:20:05.268Z,5.50
2019-03-03T13:23:01.547Z,2.77
2019-03-03T13:26:03.086Z,5.67
2019-03-03T13:32:03.589Z,3.83
2019-03-03T13:35:04.356Z,3.33
2019-03-03T13:37:56.641Z,2.40
2019-03-03T13:40:57.865Z,3.40
2019-03-03T13:43:47.874Z,2.50
2019-03-03T13:46:37.674Z,2.83
2019-03-03T13:49:27.482Z,3.60
2019-03-03T13:52:17.772Z,2.63
2019-03-03T13:55:08.599Z,2.83
2019-03-03T13:57:58.391Z,2.63
2019-03-03T14:00:41.220Z,2.80
2019-03-03T14:03:31.023Z,2.70
2019-03-03T14:09:24.793Z,3.03
2019-03-03T14:12:14.642Z,3.20
2019-03-03T14:15:04.330Z,1.93
2019-03-03T14:17:46.440Z,4.80
2019-03-03T14:20:36.353Z,2.63
2019-03-03T14:23:26.161Z,3.53
2019-03-03T14:26:16.067Z,2.30
2019-03-03T14:29:17.715Z,2.60
2019-03-03T14:32:00.305Z,1.97
2019-03-03T14:34:50.347Z,3.37
2019-03-03T14:37:58.877Z,4.37
2019-03-03T14:40:41.444Z,2.27
2019-03-03T14:46:15.322Z,2.80
2019-03-03T14:52:06.943Z,2.10
2019-03-03T14:57:50.680Z,1.77
2019-03-03T15:00:40.505Z,2.33
2019-03-03T15:03:30.478Z,3.03
2019-03-03T15:06:24.327Z,2.33
2019-03-03T15:09:09.497Z,2.53
2019-03-03T15:11:59.589Z,3.70
2019-03-03T15:14:49.645Z,1.77
2019-03-03T15:17:39.553Z,2.53
2019-03-03T15:20:29.953Z,2.50
2019-03-03T15:26:24.385Z,2.17
2019-03-03T15:29:08.790Z,3.80
2019-03-03T15:31:58.519Z,1.77
2019-03-03T15:34:41.124Z,2.10
2019-03-03T15:37:31.109Z,1.63
2019-03-03T15:40:14.020Z,2.33
2019-03-03T15:43:16.425Z,2.40
2019-03-03T15:45:58.921Z,3.70
2019-03-03T15:48:48.807Z,2.67
2019-03-03T15:51:30.999Z,1.60
2019-03-03T15:54:20.726Z,2.70
2019-03-03T15:57:10.570Z,2.37
2019-03-03T16:00:19.434Z,1.83
2019-03-03T16:03:09.236Z,3.17
2019-03-03T16:05:59.103Z,3.23
2019-03-03T16:08:48.869Z,3.13
2019-03-03T16:11:38.661Z,2.80
2019-03-03T16:14:40.855Z,2.97
2019-03-03T16:17:23.158Z,1.40
2019-03-03T16:20:15.871Z,1.73
2019-03-03T16:22:58.401Z,5.93
2019-03-03T16:25:48.131Z,4.07
2019-03-03T16:28:30.334Z,2.50
2019-03-03T16:34:42.630Z,1.23
2019-03-03T16:37:25.513Z,2.93
2019-03-03T16:40:17.018Z,1.13
2019-03-03T16:43:06.815Z,1.53
2019-03-03T16:45:56.799Z,4.53
2019-03-03T16:48:46.832Z,1.93
2019-03-03T16:51:17.849Z,1.57
2019-03-03T16:57:03.900Z,1.47
2019-03-03T16:59:53.929Z,1.90
2019-03-03T17:02:36.526Z,1.30
2019-03-03T17:05:26.641Z,1.33
2019-03-03T17:08:09.033Z,1.77
2019-03-03T17:10:58.816Z,1.93
2019-03-03T17:13:41.320Z,2.03
2019-03-03T17:16:31.032Z,2.50
2019-03-03T17:19:39.598Z,1.47
2019-03-03T17:22:48.416Z,0.90
2019-03-03T17:25:38.239Z,2.27
2019-03-03T17:28:20.700Z,8.90
2019-03-03T17:31:12.294Z,3.60
2019-03-03T17:33:55.949Z,1.07
2019-03-03T17:36:45.988Z,2.50
2019-03-03T17:39:28.683Z,2.07
2019-03-03T17:42:37.768Z,1.73
2019-03-03T17:45:21.946Z,1.13
2019-03-03T17:48:11.702Z,1.13
2019-03-03T17:50:53.730Z,1.67
2019-03-03T17:53:43.496Z,1.70
2019-03-03T17:56:26.087Z,2.20
2019-03-03T17:59:15.902Z,2.90
2019-03-03T18:01:58.770Z,1.70
2019-03-03T18:04:48.636Z,2.07
2019-03-03T18:07:38.425Z,1.40
2019-03-03T18:10:20.482Z,1.33
2019-03-03T18:16:14.629Z,3.13
2019-03-03T18:18:56.973Z,2.60
2019-03-03T18:21:46.688Z,5.17
2019-03-03T18:24:29.591Z,2.53
2019-03-03T18:27:19.299Z,1.60
2019-03-03T18:30:01.233Z,2.20
2019-03-03T18:32:51.028Z,3.23
2019-03-03T18:35:33.327Z,5.00
2019-03-03T18:38:23.265Z,1.97
2019-03-03T18:41:05.645Z,3.50
2019-03-03T18:46:50.810Z,2.97
2019-03-03T18:49:21.622Z,2.70
2019-03-03T18:55:07.967Z,3.23
2019-03-03T18:57:57.784Z,2.60
2019-03-03T19:00:39.883Z,2.83
2019-03-03T19:03:29.709Z,5.47
2019-03-03T19:06:12.156Z,2.67
2019-03-03T19:09:01.981Z,2.80
2019-03-03T19:11:51.819Z,4.30
2019-03-03T19:14:41.692Z,2.73
2019-03-03T19:17:31.485Z,2.03
2019-03-03T19:20:34.186Z,2.73
2019-03-03T19:23:16.824Z,3.77
2019-03-03T19:26:25.664Z,2.77
2019-03-03T19:29:07.861Z,2.57
2019-03-03T19:31:57.951Z,3.10
2019-03-03T19:34:40.438Z,4.40
2019-03-03T19:37:30.427Z,1.80
2019-03-03T19:40:13.301Z,2.67
2019-03-03T19:43:03.312Z,2.97
2019-03-03T19:45:45.961Z,3.10
2019-03-03T19:48:36.009Z,3.13
2019-03-03T19:51:19.470Z,2.43
2019-03-03T19:57:03.434Z,2.90
2019-03-03T19:59:34.129Z,3.87
2019-03-03T20:02:23.926Z,2.60
2019-03-03T20:05:13.697Z,2.27
2019-03-03T20:07:55.950Z,3.30
2019-03-03T20:10:45.928Z,1.77
2019-03-03T20:13:29.981Z,2.10
2019-03-03T20:16:19.700Z,3.03
2019-03-03T20:19:02.592Z,2.17
2019-03-03T20:24:55.376Z,5.07
2019-03-03T20:27:45.285Z,1.50
2019-03-03T20:30:27.995Z,3.10
2019-03-03T20:33:17.730Z,1.50
2019-03-03T20:35:59.941Z,1.90
2019-03-03T20:38:49.708Z,1.50
2019-03-03T20:41:32.356Z,2.33
2019-03-03T20:44:22.124Z,2.20
2019-03-03T20:47:04.987Z,1.40
2019-03-03T20:49:54.738Z,3.50
2019-03-03T20:52:37.654Z,4.40
2019-03-03T20:58:30.358Z,2.60
2019-03-03T21:01:20.078Z,3.13
2019-03-03T21:04:04.043Z,3.10
2019-03-03T21:06:54.039Z,2.33
2019-03-03T21:09:36.251Z,1.63
2019-03-03T21:15:21.142Z,1.43
2019-03-03T21:21:04.839Z,2.93
2019-03-03T21:23:54.809Z,1.70
2019-03-03T21:26:44.578Z,2.60
2019-03-03T21:29:34.397Z,1.20
2019-03-03T21:35:46.176Z,1.77
2019-03-03T21:38:28.365Z,1.50
2019-03-03T21:41:30.344Z,1.87
2019-03-03T21:44:20.275Z,1.97
2019-03-03T21:47:10.075Z,1.40
2019-03-03T21:49:52.745Z,3.23
2019-03-03T21:52:34.705Z,1.83
2019-03-03T21:55:24.654Z,1.67
2019-03-03T21:58:14.592Z,1.90
2019-03-03T22:01:04.530Z,2.10
2019-03-03T22:12:30.118Z,1.53
2019-03-03T22:15:16.641Z,1.27
2019-03-03T22:17:58.949Z,1.30
2019-03-03T22:23:44.841Z,2.10
2019-03-03T22:26:15.525Z,1.67
2019-03-03T22:29:05.509Z,1.53
2019-03-03T22:31:48.632Z,1.33
2019-03-03T22:34:19.525Z,1.93
2019-03-03T22:40:05.137Z,1.17
2019-03-03T22:45:56.181Z,1.57
2019-03-03T22:48:45.904Z,2.20
2019-03-03T22:51:16.625Z,1.73
2019-03-03T22:57:08.114Z,1.23
2019-03-03T22:59:57.919Z,1.40
2019-03-03T23:02:41.673Z,1.20
2019-03-03T23:05:53.872Z,1.30
2019-03-03T23:08:49.443Z,1.73
2019-03-03T23:12:17.347Z,1.43
2019-03-03T23:15:19.538Z,1.20
2019-03-03T23:18:47.371Z,1.87
2019-03-03T23:21:55.245Z,2.63
2019-03-03T23:25:12.771Z,2.10
2019-03-03T23:27:56.545Z,1.20
2019-03-03T23:30:46.321Z,1.90
2019-03-03T23:33:28.884Z,2.90
2019-03-03T23:36:18.674Z,2.30
2019-03-03T23:39:00.607Z,1.47
2019-03-03T23:41:50.347Z,1.93
2019-03-03T23:44:21.432Z,2.20
2019-03-03T23:47:11.202Z,1.47
2019-03-03T23:49:55.159Z,2.50
2019-03-03T23:52:44.935Z,1.43
2019-03-03T23:55:27.610Z,1.90
2019-03-03T23:58:17.403Z,1.67
